Time;durP1;ratioP1;P1;durP2;ratioP2;P2;SDS_P1;SDS_P2;PMS_P1;PMS_P2;Temp;Humidity;BMP_temperature;BMP_pressure;BME280_temperature;BME280_humidity;BME280_pressure;Samples;Min_cycle;Max_cycle;Signal;HPM_P1;HPM_P2
2022/08/05 00:03:28;;;;;;;;;;;;;;;26.68;46.49;95446.97;10233730;28;1902;-67
2022/08/05 00:08:35;;;;;;;;;;;;;;;26.68;46.27;95446.19;10243095;28;1850;-67
2022/08/05 00:13:36;;;;;;;;;;;;;;;26.68;46.50;95436.34;10252416;28;1974;-68
2022/08/05 00:18:37;;;;;;;;;;;;;;;26.68;46.34;95439.00;10230350;29;1935;-67
2022/08/05 00:23:37;;;;;;;;;;;;;;;26.68;46.46;95438.22;10232664;28;1939;-68
2022/08/05 00:28:37;;;;;;;;;;;;;;;26.68;46.48;95436.34;10234936;28;1883;-67
2022/08/05 00:33:37;;;;;;;;;;;;;;;26.67;46.42;95432.09;10237380;29;1902;-67
2022/08/05 00:38:38;;;;;;;;;;;;;;;26.68;46.48;95430.25;10230519;28;1899;-68
2022/08/05 00:43:38;;;;;;;;;;;;;;;26.68;46.15;95433.69;10234643;28;2031;-67
2022/08/05 00:48:39;;;;;;;;;;;;;;;26.68;46.40;95430.25;10241297;29;2025;-67
2022/08/05 00:53:39;;;;;;;;;;;;;;;26.69;46.41;95432.56;10239378;28;1953;-67
2022/08/05 00:58:40;;;;;;;;;;;;;;;26.69;46.48;95429.91;10242132;28;1960;-67
2022/08/05 01:03:41;;;;;;;;;;;;;;;26.69;46.48;95421.94;10256971;28;2017;-66
2022/08/05 01:08:41;;;;;;;;;;;;;;;26.69;46.47;95421.94;10246561;28;1972;-67
2022/08/05 01:14:03;;;;;;;;;;;;;;;26.69;46.36;95415.84;10244364;28;1982;-67
2022/08/05 01:19:19;;;;;;;;;;;;;;;26.69;46.43;95426.50;10241202;28;1960;-68
2022/08/05 01:24:50;;;;;;;;;;;;;;;26.69;46.47;95424.59;10244597;28;1947;-67
2022/08/05 01:29:51;;;;;;;;;;;;;;;26.70;46.27;95417.41;10241123;28;1910;-67
2022/08/05 01:34:57;;;;;;;;;;;;;;;26.69;46.40;95421.94;10243817;28;1966;-67
2022/08/05 01:39:58;;;;;;;;;;;;;;;26.68;46.37;95415.06;10243324;28;2280;-67
2022/08/05 01:45:19;;;;;;;;;;;;;;;26.69;46.21;95410.53;10233764;28;2025;-67
2022/08/05 01:50:21;;;;;;;;;;;;;;;26.69;46.31;95413.19;10239736;28;1982;-67
2022/08/05 01:55:21;;;;;;;;;;;;;;;26.69;46.36;95413.97;10237938;28;1988;-67
2022/08/05 02:00:21;;;;;;;;;;;;;;;26.69;46.25;95413.97;10245231;29;2026;-67
2022/08/05 02:05:26;;;;;;;;;;;;;;;26.70;46.28;95418.19;10242923;28;2031;-67
2022/08/05 02:10:27;;;;;;;;;;;;;;;26.70;46.06;95414.75;10245115;28;2003;-67
2022/08/05 02:15:34;;;;;;;;;;;;;;;26.70;46.11;95420.06;10253714;28;1974;-68
2022/08/05 02:20:40;;;;;;;;;;;;;;;26.70;46.46;95420.84;10220000;29;2095;-68
2022/08/05 02:25:42;;;;;;;;;;;;;;;26.70;46.26;95415.53;10224262;29;2043;-68
2022/08/05 02:30:50;;;;;;;;;;;;;;;26.70;46.06;95415.53;10238020;28;2013;-68
2022/08/05 02:35:50;;;;;;;;;;;;;;;26.70;46.06;95412.88;10239160;28;1962;-68
2022/08/05 02:40:50;;;;;;;;;;;;;;;26.70;46.04;95412.88;10236422;28;2052;-68
2022/08/05 02:45:51;;;;;;;;;;;;;;;26.69;46.27;95408.63;10243379;28;2013;-69
2022/08/05 02:50:51;;;;;;;;;;;;;;;26.70;46.15;95415.53;10235834;28;2079;-68
2022/08/05 02:55:52;;;;;;;;;;;;;;;26.70;46.11;95404.91;10236674;28;2103;-68
2022/08/05 03:00:55;;;;;;;;;;;;;;;26.70;46.08;95412.09;10239086;29;1929;-68
2022/08/05 03:05:56;;;;;;;;;;;;;;;26.69;46.19;95405.97;10235030;28;2033;-68
2022/08/05 03:10:57;;;;;;;;;;;;;;;26.71;46.00;95408.34;10249056;28;1946;-68
2022/08/05 03:15:57;;;;;;;;;;;;;;;26.71;46.01;95409.09;10234108;28;1997;-68
2022/08/05 03:20:57;;;;;;;;;;;;;;;26.71;45.98;95408.34;10251528;28;1969;-68
2022/08/05 03:25:58;;;;;;;;;;;;;;;26.70;46.06;95399.56;10235784;28;2008;-68
2022/08/05 03:30:58;;;;;;;;;;;;;;;26.71;46.04;95403.78;10237233;28;1965;-68
2022/08/05 03:35:59;;;;;;;;;;;;;;;26.71;45.91;95406.44;10237392;28;2009;-68
2022/08/05 03:40:59;;;;;;;;;;;;;;;26.72;46.01;95404.59;10236124;28;1957;-68
2022/08/05 03:46:00;;;;;;;;;;;;;;;26.72;46.17;95401.94;10230802;28;1949;-68
2022/08/05 03:51:33;;;;;;;;;;;;;;;26.71;45.99;95398.47;10233797;28;1961;-67
2022/08/05 03:56:44;;;;;;;;;;;;;;;26.71;45.92;95395.81;10213203;28;1982;-68
2022/08/05 04:01:45;;;;;;;;;;;;;;;26.72;45.95;95401.94;10234027;28;2469;-68
2022/08/05 04:06:45;;;;;;;;;;;;;;;26.71;45.89;95398.47;10235245;28;1993;-68
2022/08/05 04:11:46;;;;;;;;;;;;;;;26.72;45.97;95404.59;10233157;28;2290;-68
2022/08/05 04:16:47;;;;;;;;;;;;;;;26.72;45.81;95405.38;10235286;28;1954;-68
2022/08/05 04:21:48;;;;;;;;;;;;;;;26.72;45.83;95409.91;10259026;28;1989;-68
2022/08/05 04:26:49;;;;;;;;;;;;;;;26.71;46.07;95414.41;10246206;28;2129;-68
2022/08/05 04:31:49;;;;;;;;;;;;;;;26.72;45.94;95442.59;10241290;28;1976;-68
2022/08/05 04:36:50;;;;;;;;;;;;;;;26.72;45.72;95458.56;10244681;28;1963;-68
2022/08/05 04:41:50;;;;;;;;;;;;;;;26.72;45.88;95463.88;10244834;28;2000;-68
2022/08/05 04:46:52;;;;;;;;;;;;;;;26.72;45.90;95463.88;10247098;28;2000;-68
2022/08/05 04:51:52;;;;;;;;;;;;;;;26.72;45.76;95471.84;10251997;28;1980;-68
2022/08/05 04:56:54;;;;;;;;;;;;;;;26.72;45.78;95463.88;10242910;28;1914;-68
2022/08/05 05:01:57;;;;;;;;;;;;;;;26.73;45.71;95475.31;10243720;28;1953;-67
2022/08/05 05:06:57;;;;;;;;;;;;;;;26.73;45.82;95468.09;10243808;28;2009;-68
2022/08/05 05:11:58;;;;;;;;;;;;;;;26.73;45.65;95473.41;10241465;28;2042;-67
2022/08/05 05:16:59;;;;;;;;;;;;;;;26.74;45.77;95487.50;10257485;28;1972;-67
2022/08/05 05:22:00;;;;;;;;;;;;;;;26.74;45.72;95487.50;10260082;28;2227;-68
2022/08/05 05:27:01;;;;;;;;;;;;;;;26.75;45.82;95481.09;10243122;28;1975;-68
2022/08/05 05:32:02;;;;;;;;;;;;;;;26.74;45.82;95482.97;10235881;28;1928;-68
2022/08/05 05:37:03;;;;;;;;;;;;;;;26.75;45.77;95479.19;10242241;28;2220;-68
2022/08/05 05:42:04;;;;;;;;;;;;;;;26.75;45.52;95481.84;10237818;28;2020;-68
2022/08/05 05:47:04;;;;;;;;;;;;;;;26.75;45.63;95495.13;10239575;28;2371;-68
2022/08/05 05:52:06;;;;;;;;;;;;;;;26.76;45.55;95496.72;10238620;28;1947;-68
2022/08/05 05:57:06;;;;;;;;;;;;;;;26.76;45.56;95496.72;10257587;28;2050;-68
2022/08/05 06:02:07;;;;;;;;;;;;;;;26.76;45.69;95486.06;10239541;29;1794;-68
2022/08/05 06:07:07;;;;;;;;;;;;;;;26.76;45.49;95491.41;10239604;28;2024;-68
2022/08/05 06:12:07;;;;;;;;;;;;;;;26.77;45.48;95482.31;10253054;28;2022;-68
2022/08/05 06:17:08;;;;;;;;;;;;;;;26.77;45.53;95492.94;10242297;28;1962;-67
2022/08/05 06:22:09;;;;;;;;;;;;;;;26.77;45.61;95492.94;10243339;28;1795;-67
2022/08/05 06:27:09;;;;;;;;;;;;;;;26.77;45.56;95490.28;10239815;28;1842;-67
2022/08/05 06:32:10;;;;;;;;;;;;;;;26.77;45.57;95487.63;10239636;28;1890;-67
2022/08/05 06:37:10;;;;;;;;;;;;;;;26.77;45.48;95498.25;10237658;28;1914;-67
2022/08/05 06:42:14;;;;;;;;;;;;;;;26.78;45.48;95493.72;10238108;28;1874;-67
2022/08/05 06:47:15;;;;;;;;;;;;;;;26.79;45.21;95511.25;10241787;28;1819;-68
2022/08/05 06:52:16;;;;;;;;;;;;;;;26.79;45.27;95513.91;10242258;28;1797;-68
2022/08/05 06:57:17;;;;;;;;;;;;;;;26.79;45.22;95506.69;10241463;28;1984;-68
2022/08/05 07:02:17;;;;;;;;;;;;;;;26.78;45.14;95513.13;10238302;29;1747;-68
2022/08/05 07:07:17;;;;;;;;;;;;;;;26.79;45.28;95505.94;10239709;28;1854;-68
2022/08/05 07:17:37;;;;;;;;;;;;;;;26.80;45.12;95526.88;10246644;28;1898;-68
2022/08/05 07:22:37;;;;;;;;;;;;;;;26.81;45.22;95540.97;10236335;28;1855;-68
2022/08/05 07:27:38;;;;;;;;;;;;;;;26.81;45.13;95540.97;10236847;28;1868;-68
2022/08/05 07:32:38;;;;;;;;;;;;;;;26.82;45.20;95563.78;10239815;28;1896;-68
2022/08/05 07:37:39;;;;;;;;;;;;;;;26.82;45.29;95566.44;10249903;28;1935;-68
2022/08/05 07:42:39;;;;;;;;;;;;;;;26.82;45.35;95579.75;10255165;28;1850;-68
2022/08/05 07:47:39;;;;;;;;;;;;;;;26.81;45.23;95575.53;10235443;29;1882;-68
2022/08/05 07:52:40;;;;;;;;;;;;;;;26.83;45.27;95584.75;10236680;28;1844;-68
2022/08/05 07:57:41;;;;;;;;;;;;;;;26.83;45.32;95600.69;10237193;28;1911;-68
2022/08/05 08:02:43;;;;;;;;;;;;;;;26.84;45.33;95598.84;10238759;28;1921;-68
2022/08/05 08:07:43;;;;;;;;;;;;;;;26.84;45.18;95612.13;10232826;28;1886;-68
2022/08/05 08:12:45;;;;;;;;;;;;;;;26.83;45.07;95611.34;10248526;28;1800;-68
2022/08/05 08:17:45;;;;;;;;;;;;;;;26.84;45.25;95612.91;10233239;28;1970;-68
2022/08/05 08:22:52;;;;;;;;;;;;;;;26.85;45.32;95629.66;10235544;28;1846;-68
2022/08/05 08:27:52;;;;;;;;;;;;;;;26.84;45.37;95639.50;10235354;28;1764;-68
2022/08/05 08:32:54;;;;;;;;;;;;;;;26.85;45.32;95646.41;10234468;28;1854;-68
2022/08/05 08:37:54;;;;;;;;;;;;;;;26.85;45.15;95654.38;10235320;28;1930;-68
2022/08/05 08:42:54;;;;;;;;;;;;;;;26.85;45.32;95665.03;10231429;28;1857;-68
2022/08/05 08:47:55;;;;;;;;;;;;;;;26.85;45.14;95664.25;10231445;28;1832;-68
2022/08/05 08:52:58;;;;;;;;;;;;;;;26.85;45.17;95670.34;10234133;28;1813;-68
2022/08/05 08:57:59;;;;;;;;;;;;;;;26.87;45.33;95675.34;10230416;28;1956;-68
2022/08/05 09:02:59;;;;;;;;;;;;;;;26.89;45.43;95681.13;10237515;28;1955;-68
2022/08/05 09:08:01;;;;;;;;;;;;;;;26.90;45.49;95688.00;10241867;28;1965;-68
2022/08/05 09:13:01;;;;;;;;;;;;;;;26.90;45.54;95677.34;10239332;28;1820;-68
2022/08/05 09:18:01;;;;;;;;;;;;;;;26.91;45.45;95700.22;10239853;28;2167;-68
2022/08/05 09:23:02;;;;;;;;;;;;;;;26.91;45.41;95698.34;10244723;28;2235;-68
2022/08/05 09:28:09;;;;;;;;;;;;;;;26.92;45.30;95699.09;10243715;28;2197;-68
2022/08/05 09:33:10;;;;;;;;;;;;;;;26.92;45.47;95707.88;10246648;28;1549;-68
2022/08/05 09:38:10;;;;;;;;;;;;;;;26.92;45.46;95702.56;10241836;28;2346;-68
2022/08/05 09:43:28;;;;;;;;;;;;;;;26.94;45.47;95710.22;10240072;28;2195;-68
2022/08/05 09:48:29;;;;;;;;;;;;;;;26.94;45.55;95705.69;10236814;28;1745;-68
2022/08/05 09:53:29;;;;;;;;;;;;;;;26.95;45.50;95707.25;10237597;28;1907;-67
2022/08/05 09:58:29;;;;;;;;;;;;;;;26.95;45.66;95701.16;10243236;28;1873;-68
2022/08/05 10:03:30;;;;;;;;;;;;;;;26.97;45.51;95701.63;10243466;28;1857;-68
2022/08/05 10:08:31;;;;;;;;;;;;;;;26.97;45.66;95710.38;10243543;28;1907;-68
2022/08/05 10:13:34;;;;;;;;;;;;;;;26.98;45.58;95711.16;10230086;28;1951;-68
2022/08/05 10:18:35;;;;;;;;;;;;;;;26.98;45.58;95711.94;10241857;28;1869;-67
2022/08/05 10:23:35;;;;;;;;;;;;;;;27.01;45.63;95710.53;10237471;28;1840;-68
2022/08/05 10:28:36;;;;;;;;;;;;;;;27.00;45.77;95716.94;10241833;28;1828;-68
2022/08/05 10:33:36;;;;;;;;;;;;;;;27.00;45.94;95717.72;10254736;28;1907;-68
2022/08/05 10:38:39;;;;;;;;;;;;;;;27.00;45.69;95722.25;10263955;28;1796;-68
2022/08/05 10:43:40;;;;;;;;;;;;;;;27.01;45.64;95718.50;10234359;28;1862;-68
2022/08/05 10:48:47;;;;;;;;;;;;;;;27.02;45.64;95720.06;10251453;28;1846;-68
2022/08/05 10:53:54;;;;;;;;;;;;;;;27.03;45.59;95726.97;10231015;29;1977;-68
2022/08/05 10:58:58;;;;;;;;;;;;;;;27.03;45.74;95719.75;10237541;28;1912;-68
2022/08/05 11:03:59;;;;;;;;;;;;;;;27.04;45.62;95720.53;10251904;28;1921;-68
2022/08/05 11:09:19;;;;;;;;;;;;;;;27.05;45.54;95706.13;10234547;28;1726;-68
2022/08/05 11:14:26;;;;;;;;;;;;;;;27.05;45.76;95709.59;10237370;29;1910;-68
2022/08/05 11:19:28;;;;;;;;;;;;;;;27.06;45.73;95703.16;10236865;28;1828;-67
2022/08/05 11:24:28;;;;;;;;;;;;;;;27.05;45.67;95704.25;10253394;28;1794;-68
2022/08/05 11:29:35;;;;;;;;;;;;;;;27.07;45.67;95703.94;10236833;28;1872;-68
2022/08/05 11:34:38;;;;;;;;;;;;;;;27.09;45.67;95696.44;10235458;28;1965;-67
2022/08/05 11:39:46;;;;;;;;;;;;;;;27.10;45.83;95693.44;10237797;28;1825;-68
2022/08/05 11:44:46;;;;;;;;;;;;;;;27.10;45.96;95692.69;10250512;28;1908;-67
2022/08/05 11:49:47;;;;;;;;;;;;;;;27.11;45.89;95695.03;10233949;28;1842;-68
2022/08/05 11:54:47;;;;;;;;;;;;;;;27.12;45.97;95696.56;10231744;28;1950;-68
2022/08/05 11:59:47;;;;;;;;;;;;;;;27.13;46.08;95682.19;10217966;28;1857;-67
2022/08/05 12:04:48;;;;;;;;;;;;;;;27.13;46.07;95679.50;10237906;28;1827;-67
2022/08/05 12:09:52;;;;;;;;;;;;;;;27.14;46.14;95678.41;10233998;28;1780;-67
2022/08/05 12:14:53;;;;;;;;;;;;;;;27.13;46.22;95676.84;10236512;28;1903;-68
2022/08/05 12:19:54;;;;;;;;;;;;;;;27.14;46.21;95677.66;10231682;28;1812;-68
2022/08/05 12:24:57;;;;;;;;;;;;;;;27.14;46.07;95664.34;10233992;28;1959;-67
2022/08/05 12:30:01;;;;;;;;;;;;;;;27.14;46.21;95659.03;10233662;28;1824;-68
2022/08/05 12:35:02;;;;;;;;;;;;;;;27.14;46.10;95667.00;10231744;28;1914;-68
2022/08/05 12:40:06;;;;;;;;;;;;;;;27.14;46.14;95657.13;10234406;28;1876;-68
2022/08/05 12:45:07;;;;;;;;;;;;;;;27.15;46.17;95647.25;10239606;28;1865;-68
2022/08/05 12:50:14;;;;;;;;;;;;;;;27.15;46.06;95647.25;10237644;28;2056;-67
2022/08/05 12:55:14;;;;;;;;;;;;;;;27.15;46.20;95648.03;10256843;28;1922;-68
2022/08/05 13:00:19;;;;;;;;;;;;;;;27.17;46.11;95631.75;10243448;28;1832;-67
2022/08/05 13:05:19;;;;;;;;;;;;;;;27.17;46.18;95629.09;10237829;28;1836;-69
2022/08/05 13:10:19;;;;;;;;;;;;;;;27.17;46.05;95623.78;10224352;28;1847;-68
2022/08/05 13:15:19;;;;;;;;;;;;;;;27.18;46.03;95631.44;10246916;28;1907;-69
2022/08/05 13:20:20;;;;;;;;;;;;;;;27.18;46.08;95633.34;10237673;28;1837;-70
2022/08/05 13:25:21;;;;;;;;;;;;;;;27.18;46.12;95620.03;10249199;28;1818;-68
2022/08/05 13:30:23;;;;;;;;;;;;;;;27.19;46.08;95627.69;10243790;28;1780;-70
2022/08/05 13:35:23;;;;;;;;;;;;;;;27.18;46.12;95620.78;10245493;28;1970;-72
2022/08/05 13:40:23;;;;;;;;;;;;;;;27.19;46.08;95611.72;10242863;28;1846;-70
2022/08/05 13:45:24;;;;;;;;;;;;;;;27.19;46.20;95614.38;10256832;28;1915;-73
2022/08/05 13:50:25;;;;;;;;;;;;;;;27.20;46.06;95620.50;10244458;28;1869;-69
2022/08/05 13:55:25;;;;;;;;;;;;;;;27.21;46.19;95609.53;10242441;28;1989;-69
2022/08/05 14:00:26;;;;;;;;;;;;;;;27.21;46.09;95612.19;10253501;28;1864;-68
2022/08/05 14:05:26;;;;;;;;;;;;;;;27.22;46.16;95600.41;10239644;28;1829;-69
2022/08/05 14:10:26;;;;;;;;;;;;;;;27.22;46.16;95589.78;10251938;28;1847;-69
2022/08/05 14:15:26;;;;;;;;;;;;;;;27.22;46.23;95589.78;10239752;28;1971;-68
2022/08/05 14:20:28;;;;;;;;;;;;;;;27.24;46.13;95578.84;10238874;28;1889;-68
2022/08/05 14:25:28;;;;;;;;;;;;;;;27.24;46.27;95576.16;10254786;28;1845;-68
2022/08/05 14:30:28;;;;;;;;;;;;;;;27.24;46.24;95573.50;10255093;28;1794;-69
2022/08/05 14:35:29;;;;;;;;;;;;;;;27.23;46.24;95564.75;10240425;28;1961;-69
2022/08/05 14:40:29;;;;;;;;;;;;;;;27.25;46.39;95551.88;10238646;29;1767;-68
2022/08/05 14:45:30;;;;;;;;;;;;;;;27.26;46.32;95542.03;10235446;28;1872;-69
2022/08/05 14:50:30;;;;;;;;;;;;;;;27.26;46.09;95521.53;10241025;28;1831;-69
2022/08/05 14:55:30;;;;;;;;;;;;;;;27.27;46.49;95517.75;10233772;29;1951;-69
2022/08/05 15:00:31;;;;;;;;;;;;;;;27.26;46.25;95510.88;10238062;28;1918;-69
2022/08/05 15:05:32;;;;;;;;;;;;;;;27.27;46.35;95512.44;10235600;28;1891;-69
2022/08/05 15:10:33;;;;;;;;;;;;;;;27.28;46.58;95516.66;10238669;28;1951;-68
2022/08/05 15:15:33;;;;;;;;;;;;;;;27.29;46.47;95531.53;10238131;28;2167;-69
2022/08/05 15:20:34;;;;;;;;;;;;;;;27.28;46.43;95539.84;10236117;28;1904;-69
2022/08/05 15:25:35;;;;;;;;;;;;;;;27.28;46.51;95535.28;10240059;28;1854;-69
2022/08/05 15:30:36;;;;;;;;;;;;;;;27.28;46.60;95540.63;10237013;28;2217;-69
2022/08/05 15:35:36;;;;;;;;;;;;;;;27.28;46.46;95551.25;10238990;28;1910;-67
2022/08/05 15:40:37;;;;;;;;;;;;;;;27.28;46.41;95548.59;10251063;28;1780;-68
2022/08/05 15:45:37;;;;;;;;;;;;;;;27.29;46.57;95546.69;10236163;28;1973;-69
2022/08/05 15:50:37;;;;;;;;;;;;;;;27.29;46.54;95549.34;10241128;28;1850;-69
2022/08/05 15:55:37;;;;;;;;;;;;;;;27.28;46.44;95545.94;10238770;28;1910;-68
2022/08/05 16:00:40;;;;;;;;;;;;;;;27.29;46.43;95539.50;10237845;28;2172;-68
2022/08/05 16:05:40;;;;;;;;;;;;;;;27.29;46.58;95547.50;10237030;28;1929;-68
2022/08/05 16:10:41;;;;;;;;;;;;;;;27.31;46.51;95553.28;10238455;28;1648;-69
2022/08/05 16:15:41;;;;;;;;;;;;;;;27.30;46.47;95554.38;10239115;28;1989;-69
2022/08/05 16:20:41;;;;;;;;;;;;;;;27.31;46.37;95552.47;10246274;29;1765;-68
2022/08/05 16:25:42;;;;;;;;;;;;;;;27.32;46.58;95546.06;10253586;28;1952;-69
2022/08/05 16:30:42;;;;;;;;;;;;;;;27.31;46.56;95550.59;10242743;28;1883;-69
2022/08/05 16:35:42;;;;;;;;;;;;;;;27.31;46.52;95558.59;10262578;28;1915;-68
2022/08/05 16:40:43;;;;;;;;;;;;;;;27.31;46.58;95552.47;10245057;28;1862;-69
2022/08/05 16:45:44;;;;;;;;;;;;;;;27.30;46.40;95551.72;10242255;29;1799;-69
2022/08/05 16:50:44;;;;;;;;;;;;;;;27.31;46.65;95563.91;10256558;28;1767;-68
2022/08/05 16:55:44;;;;;;;;;;;;;;;27.31;46.38;95561.25;10247286;28;1962;-68
2022/08/05 17:00:45;;;;;;;;;;;;;;;27.31;46.50;95565.78;10255411;28;1844;-69
2022/08/05 17:05:45;;;;;;;;;;;;;;;27.31;46.60;95558.59;10238331;28;1918;-68
2022/08/05 17:10:45;;;;;;;;;;;;;;;27.31;46.59;95561.25;10239484;28;1896;-69
2022/08/05 17:15:47;;;;;;;;;;;;;;;27.32;46.23;95562.03;10243368;28;1977;-68
2022/08/05 17:20:47;;;;;;;;;;;;;;;27.31;46.39;95566.56;10241386;28;1829;-69
2022/08/05 17:25:47;;;;;;;;;;;;;;;27.33;46.52;95560.94;10244259;28;1816;-69
2022/08/05 17:30:48;;;;;;;;;;;;;;;27.32;46.26;95562.84;10244869;28;1847;-68
2022/08/05 17:35:49;;;;;;;;;;;;;;;27.32;46.39;95560.16;10258194;28;1910;-69
2022/08/05 17:40:50;;;;;;;;;;;;;;;27.33;46.39;95564.38;10240036;29;1820;-68
2022/08/05 17:45:50;;;;;;;;;;;;;;;27.34;46.50;95560.66;10241182;28;1803;-68
2022/08/05 17:50:50;;;;;;;;;;;;;;;27.33;46.41;95569.69;10242080;28;1838;-69
2022/08/05 17:55:51;;;;;;;;;;;;;;;27.33;46.17;95580.34;10240666;28;1911;-69
2022/08/05 18:00:51;;;;;;;;;;;;;;;27.33;46.39;95577.69;10244599;28;1971;-67
2022/08/05 18:05:52;;;;;;;;;;;;;;;27.33;46.32;95583.00;10240861;28;1853;-68
2022/08/05 18:10:52;;;;;;;;;;;;;;;27.33;46.43;95580.34;10241917;29;1861;-68
2022/08/05 18:15:52;;;;;;;;;;;;;;;27.34;46.44;95581.94;10240769;28;1980;-69
2022/08/05 18:20:53;;;;;;;;;;;;;;;27.34;46.31;95584.63;10255539;28;1822;-68
2022/08/05 18:25:53;;;;;;;;;;;;;;;27.33;46.17;95585.66;10242597;28;1976;-70
2022/08/05 18:30:53;;;;;;;;;;;;;;;27.35;46.21;95588.81;10241864;29;1849;-68
2022/08/05 18:35:53;;;;;;;;;;;;;;;27.34;46.21;95595.25;10236742;28;1910;-68
2022/08/05 18:40:56;;;;;;;;;;;;;;;27.36;46.21;95600.25;10238457;28;1907;-69
2022/08/05 18:45:56;;;;;;;;;;;;;;;27.35;46.43;95604.00;10237744;28;1747;-69
2022/08/05 18:56:16;;;;;;;;;;;;;;;27.35;46.33;95598.69;10241695;28;1936;-69
2022/08/05 19:01:17;;;;;;;;;;;;;;;27.36;46.46;95606.38;10241246;28;1815;-68
2022/08/05 19:06:17;;;;;;;;;;;;;;;27.37;46.48;95625.75;10238083;28;1892;-67
2022/08/05 19:11:17;;;;;;;;;;;;;;;27.35;46.24;95652.69;10237322;29;1814;-69
2022/08/05 19:16:17;;;;;;;;;;;;;;;27.36;45.94;95675.56;10250252;28;1986;-69
2022/08/05 19:21:18;;;;;;;;;;;;;;;27.34;45.81;95717.69;10251558;28;1799;-68
2022/08/05 19:26:18;;;;;;;;;;;;;;;27.33;45.57;95747.25;10240903;28;1832;-68
2022/08/05 19:31:19;;;;;;;;;;;;;;;27.32;45.62;95781.09;10238469;28;1842;-67
2022/08/05 19:36:20;;;;;;;;;;;;;;;27.35;45.84;95812.41;10232366;28;1965;-69
2022/08/05 19:41:20;;;;;;;;;;;;;;;27.36;46.11;95856.59;10239564;28;1814;-68
2022/08/05 19:46:20;;;;;;;;;;;;;;;27.35;45.91;95844.34;10239061;28;1831;-69
2022/08/05 19:51:21;;;;;;;;;;;;;;;27.36;46.07;95835.28;10240213;28;1835;-68
2022/08/05 19:56:21;;;;;;;;;;;;;;;27.36;46.00;95790.03;10252507;28;1914;-69
2022/08/05 20:01:23;;;;;;;;;;;;;;;27.36;46.10;95786.59;10236984;28;1933;-68
2022/08/05 20:06:23;;;;;;;;;;;;;;;27.36;46.07;95783.91;10239002;28;1798;-67
2022/08/05 20:11:24;;;;;;;;;;;;;;;27.36;46.02;95757.31;10235844;28;1456;-69
2022/08/05 20:16:24;;;;;;;;;;;;;;;27.37;46.14;95764.19;10236555;28;1924;-69
2022/08/05 20:21:24;;;;;;;;;;;;;;;27.38;46.05;95760.44;10232203;28;1942;-69
2022/08/05 20:26:25;;;;;;;;;;;;;;;27.37;46.07;95756.97;10236364;28;1815;-69
2022/08/05 20:31:26;;;;;;;;;;;;;;;27.37;46.08;95748.19;10237422;28;1840;-69
2022/08/05 20:36:26;;;;;;;;;;;;;;;27.38;46.17;95765.75;10233000;28;2223;-69
2022/08/05 20:41:27;;;;;;;;;;;;;;;27.38;46.23;95790.50;10237417;28;1945;-69
2022/08/05 20:46:27;;;;;;;;;;;;;;;27.39;46.23;95817.88;10250702;28;1883;-68
2022/08/05 20:51:28;;;;;;;;;;;;;;;27.38;46.33;95859.72;10229605;28;1974;-67
2022/08/05 20:56:28;;;;;;;;;;;;;;;27.38;46.00;95875.69;10232705;28;1972;-68
2022/08/05 21:01:29;;;;;;;;;;;;;;;27.39;46.04;95898.53;10251698;28;1867;-68
2022/08/05 21:06:29;;;;;;;;;;;;;;;27.39;46.17;95903.84;10243454;28;1875;-68
2022/08/05 21:11:30;;;;;;;;;;;;;;;27.39;46.08;95914.50;10242658;28;1853;-68
2022/08/05 21:16:32;;;;;;;;;;;;;;;27.39;46.29;95933.13;10240175;28;1906;-69
2022/08/05 21:21:32;;;;;;;;;;;;;;;27.39;46.29;95916.38;10240152;28;1887;-68
2022/08/05 21:26:33;;;;;;;;;;;;;;;27.38;46.20;95934.25;10243438;28;1960;-68
2022/08/05 21:31:33;;;;;;;;;;;;;;;27.39;46.12;95943.00;10239716;28;1793;-68
2022/08/05 21:36:35;;;;;;;;;;;;;;;27.39;46.26;95978.41;10241372;28;1903;-68
2022/08/05 21:41:36;;;;;;;;;;;;;;;27.39;46.08;95974.94;10243496;28;1780;-68
2022/08/05 21:46:37;;;;;;;;;;;;;;;27.38;45.95;95982.16;10241903;28;1870;-68
2022/08/05 21:51:38;;;;;;;;;;;;;;;27.38;45.93;95998.16;10241614;28;2619;-68
2022/08/05 21:56:38;;;;;;;;;;;;;;;27.36;45.87;95995.00;10243708;28;1981;-69
2022/08/05 22:01:39;;;;;;;;;;;;;;;27.38;45.83;96008.00;10238908;28;1846;-69
2022/08/05 22:06:41;;;;;;;;;;;;;;;27.38;45.96;96008.78;10242487;28;1874;-69
2022/08/05 22:11:43;;;;;;;;;;;;;;;27.38;45.90;95997.34;10240147;28;1925;-69
2022/08/05 22:16:44;;;;;;;;;;;;;;;27.38;45.90;95976.84;10238039;28;1914;-69
2022/08/05 22:21:50;;;;;;;;;;;;;;;27.38;45.61;95966.19;10240478;28;1842;-69
2022/08/05 22:32:10;;;;;;;;;;;;;;;27.37;45.99;95991.25;10234751;28;1782;-68
2022/08/05 22:37:10;;;;;;;;;;;;;;;27.38;46.03;96014.13;10238012;28;1995;-69
2022/08/05 22:42:11;;;;;;;;;;;;;;;27.39;45.75;96017.53;10238898;28;1893;-68
2022/08/05 22:47:11;;;;;;;;;;;;;;;27.39;45.82;96004.22;10238000;28;1892;-68
2022/08/05 22:52:12;;;;;;;;;;;;;;;27.38;45.93;96021.31;10236167;28;1811;-68
2022/08/05 22:57:12;;;;;;;;;;;;;;;27.39;45.94;96026.31;10240979;28;1906;-69
2022/08/05 23:02:12;;;;;;;;;;;;;;;27.38;45.96;96030.09;10240143;28;1850;-69
2022/08/05 23:07:13;;;;;;;;;;;;;;;27.38;45.77;96038.06;10236150;28;1902;-69
2022/08/05 23:12:15;;;;;;;;;;;;;;;27.38;45.77;96031.97;10238260;28;1862;-69
2022/08/05 23:17:24;;;;;;;;;;;;;;;27.39;45.85;96041.50;10251202;28;1968;-69
2022/08/05 23:22:25;;;;;;;;;;;;;;;27.39;45.82;96038.84;10257068;28;1899;-69
2022/08/05 23:27:25;;;;;;;;;;;;;;;27.39;45.68;96041.50;10234638;28;2069;-68
2022/08/05 23:32:26;;;;;;;;;;;;;;;27.38;45.72;96046.06;10237920;28;1847;-68
2022/08/05 23:37:27;;;;;;;;;;;;;;;27.38;45.82;96038.06;10233648;28;1919;-68
2022/08/05 23:42:27;;;;;;;;;;;;;;;27.39;45.53;96044.16;10248411;28;1913;-68
2022/08/05 23:47:27;;;;;;;;;;;;;;;27.38;45.43;96056.72;10256493;28;1867;-70
2022/08/05 23:52:33;;;;;;;;;;;;;;;27.38;45.42;96058.59;10237487;28;1909;-68
2022/08/05 23:57:34;;;;;;;;;;;;;;;27.38;45.63;96059.38;10237040;29;1903;-68
